Time;durP1;ratioP1;P1;durP2;ratioP2;P2;SDS_P1;SDS_P2;PMS_P1;PMS_P2;Temp;Humidity;BMP_temperature;BMP_pressure;BME280_temperature;BME280_humidity;BME280_pressure;Samples;Min_cycle;Max_cycle;Signal;HPM_P1;HPM_P2
2023/08/27 00:01:02;;;;;;;9.93;7.35;;;14.60;99.90;;;;;;5111744;28;20055;-78
2023/08/27 00:03:48;;;;;;;9.68;7.32;;;14.60;99.90;;;;;;5110632;28;20059;-73
2023/08/27 00:06:34;;;;;;;15.45;7.90;;;14.60;99.90;;;;;;5112913;28;20395;-79
2023/08/27 00:09:20;;;;;;;10.77;8.32;;;14.60;99.90;;;;;;5112222;28;20052;-75
2023/08/27 00:12:06;;;;;;;11.88;8.27;;;14.60;99.90;;;;;;5113588;28;20047;-70
2023/08/27 00:14:52;;;;;;;13.07;8.48;;;14.60;99.90;;;;;;5096385;28;20060;-69
2023/08/27 00:17:38;;;;;;;9.57;7.28;;;14.50;99.90;;;;;;5111478;28;20146;-73
2023/08/27 00:20:24;;;;;;;11.23;8.20;;;14.50;99.90;;;;;;5110880;28;20586;-69
2023/08/27 00:23:11;;;;;;;10.45;8.13;;;14.50;99.90;;;;;;5112377;28;20152;-70
2023/08/27 00:25:57;;;;;;;11.80;8.45;;;14.50;99.90;;;;;;5111310;28;20063;-74
2023/08/27 00:28:43;;;;;;;12.32;9.02;;;14.50;99.90;;;;;;5112112;28;20054;-72
2023/08/27 00:31:29;;;;;;;11.40;9.20;;;14.50;99.90;;;;;;5111184;28;20055;-73
2023/08/27 00:34:15;;;;;;;13.50;9.60;;;14.40;99.90;;;;;;5111550;28;20461;-70
2023/08/27 00:37:02;;;;;;;12.73;10.25;;;14.40;99.90;;;;;;5111848;28;20514;-72
2023/08/27 00:39:48;;;;;;;11.45;9.73;;;14.40;99.90;;;;;;5111604;28;20048;-70
2023/08/27 00:42:34;;;;;;;13.23;10.38;;;14.40;99.90;;;;;;5112260;28;20048;-76
2023/08/27 00:45:20;;;;;;;15.13;10.88;;;14.30;99.90;;;;;;5110910;28;20052;-72
2023/08/27 00:48:06;;;;;;;11.45;8.68;;;14.30;99.90;;;;;;5111232;28;20047;-73
2023/08/27 00:50:52;;;;;;;14.23;10.45;;;14.30;99.90;;;;;;5110437;28;20048;-73
2023/08/27 00:53:38;;;;;;;14.40;10.23;;;14.30;99.90;;;;;;5109785;28;20044;-70
2023/08/27 00:56:25;;;;;;;17.17;10.48;;;14.30;99.90;;;;;;5110436;28;20051;-75
2023/08/27 00:59:13;;;;;;;12.35;8.75;;;14.30;99.90;;;;;;5111620;28;20075;-75
2023/08/27 01:01:59;;;;;;;13.32;10.63;;;14.30;99.90;;;;;;5109758;28;20479;-72
2023/08/27 01:04:45;;;;;;;13.40;10.50;;;14.30;99.90;;;;;;5110940;28;20047;-72
2023/08/27 01:08:10;;;;;;;13.70;10.70;;;14.30;99.90;;;;;;5109321;28;20058;-72
2023/08/27 01:11:24;;;;;;;14.93;10.65;;;14.30;99.90;;;;;;5109416;28;20055;-75
2023/08/27 01:14:11;;;;;;;11.63;9.68;;;14.30;99.90;;;;;;5109762;28;20047;-70
2023/08/27 01:17:00;;;;;;;15.75;9.85;;;14.30;99.90;;;;;;5110287;28;20051;-69
2023/08/27 01:19:48;;;;;;;14.00;9.68;;;14.40;99.90;;;;;;5109995;28;20139;-71
2023/08/27 01:22:34;;;;;;;13.05;10.35;;;14.40;99.90;;;;;;5110183;28;20047;-70
2023/08/27 01:25:25;;;;;;;12.80;9.43;;;14.40;99.90;;;;;;5110545;28;20122;-70
2023/08/27 01:28:30;;;;;;;13.75;10.98;;;14.30;99.90;;;;;;5111220;28;20142;-72
2023/08/27 01:31:23;;;;;;;16.33;10.95;;;14.30;99.90;;;;;;5110692;28;20044;-68
2023/08/27 01:34:11;;;;;;;13.88;10.57;;;14.30;99.90;;;;;;5109220;28;20047;-73
2023/08/27 01:36:58;;;;;;;12.07;9.55;;;14.20;99.90;;;;;;5110374;28;20040;-70
2023/08/27 01:39:44;;;;;;;12.70;9.55;;;14.20;99.90;;;;;;5110828;28;20070;-68
2023/08/27 01:42:31;;;;;;;13.48;9.95;;;14.20;99.90;;;;;;5110474;28;20495;-71
2023/08/27 01:45:17;;;;;;;13.88;10.80;;;14.20;99.90;;;;;;5111018;28;20083;-68
2023/08/27 01:48:04;;;;;;;14.25;10.55;;;14.20;99.90;;;;;;5110796;28;20142;-73
2023/08/27 01:50:50;;;;;;;14.55;10.40;;;14.10;99.90;;;;;;5110304;28;20064;-70
2023/08/27 01:53:36;;;;;;;13.95;10.15;;;14.10;99.90;;;;;;5110347;28;20494;-68
2023/08/27 01:56:22;;;;;;;12.82;9.95;;;14.20;99.90;;;;;;5110383;28;20044;-71
2023/08/27 01:59:08;;;;;;;14.25;9.18;;;14.20;99.90;;;;;;5111523;28;20075;-72
2023/08/27 02:01:54;;;;;;;17.58;10.65;;;14.20;99.90;;;;;;5111176;28;20463;-70
2023/08/27 02:04:40;;;;;;;12.32;8.98;;;14.20;99.90;;;;;;5110446;28;20054;-68
2023/08/27 02:07:26;;;;;;;13.82;10.00;;;14.20;99.90;;;;;;5109796;28;20089;-68
2023/08/27 02:10:13;;;;;;;13.23;9.38;;;14.20;99.90;;;;;;5095088;28;20880;-69
2023/08/27 02:12:59;;;;;;;12.93;10.30;;;14.20;99.90;;;;;;5110819;28;20151;-72
2023/08/27 02:15:45;;;;;;;13.52;9.65;;;14.20;99.90;;;;;;5110105;28;20132;-74
2023/08/27 02:18:31;;;;;;;13.55;9.15;;;14.30;99.90;;;;;;5110887;28;20056;-73
2023/08/27 02:21:17;;;;;;;13.95;9.77;;;14.30;99.90;;;;;;5109897;28;20039;-75
2023/08/27 02:24:03;;;;;;;12.48;10.07;;;14.30;99.90;;;;;;5113950;28;20140;-73
2023/08/27 02:26:49;;;;;;;13.07;9.88;;;14.20;99.90;;;;;;5114307;28;20066;-71
2023/08/27 02:29:36;;;;;;;14.75;9.40;;;14.20;99.90;;;;;;5114221;28;20503;-72
2023/08/27 02:32:24;;;;;;;11.35;9.13;;;14.10;99.90;;;;;;5114692;28;20056;-73
2023/08/27 02:35:10;;;;;;;13.40;10.05;;;14.00;99.90;;;;;;5114293;28;20047;-71
2023/08/27 02:37:56;;;;;;;14.70;10.07;;;14.00;99.90;;;;;;5113675;28;20056;-73
2023/08/27 02:40:42;;;;;;;14.80;9.57;;;14.00;99.90;;;;;;5114090;28;20057;-69
2023/08/27 02:43:28;;;;;;;13.20;9.35;;;14.00;99.90;;;;;;5114782;28;20044;-73
2023/08/27 02:46:14;;;;;;;14.63;9.40;;;13.90;99.90;;;;;;5114227;28;20400;-71
2023/08/27 02:49:00;;;;;;;13.30;10.30;;;13.90;99.90;;;;;;5114172;28;20066;-73
2023/08/27 02:51:46;;;;;;;11.45;9.25;;;13.90;99.90;;;;;;5112902;28;20048;-71
2023/08/27 02:54:32;;;;;;;14.18;9.07;;;13.80;99.90;;;;;;5114342;28;20101;-70
2023/08/27 02:57:18;;;;;;;12.75;8.50;;;13.80;99.90;;;;;;5113338;28;20051;-69
2023/08/27 03:00:05;;;;;;;13.40;9.52;;;13.80;99.90;;;;;;5113301;28;20043;-74
2023/08/27 03:02:51;;;;;;;13.15;9.75;;;13.80;99.90;;;;;;5113154;28;20157;-72
2023/08/27 03:05:40;;;;;;;13.40;9.60;;;13.80;99.90;;;;;;5112257;28;20534;-74
2023/08/27 03:08:26;;;;;;;10.98;8.35;;;13.80;99.90;;;;;;5115107;28;20051;-77
2023/08/27 03:11:12;;;;;;;10.15;8.18;;;13.80;99.90;;;;;;5113721;28;20044;-69
2023/08/27 03:13:58;;;;;;;12.18;9.18;;;13.70;99.90;;;;;;5113888;28;20059;-69
2023/08/27 03:16:44;;;;;;;12.27;9.43;;;13.70;99.90;;;;;;5111546;28;20449;-73
2023/08/27 03:19:30;;;;;;;15.23;9.95;;;13.70;99.90;;;;;;5111956;28;20483;-71
2023/08/27 03:22:16;;;;;;;12.35;8.98;;;13.70;99.90;;;;;;5113491;28;20566;-74
2023/08/27 03:25:03;;;;;;;14.45;9.68;;;13.70;99.90;;;;;;5111927;28;20043;-73
2023/08/27 03:27:49;;;;;;;11.70;9.70;;;13.70;99.90;;;;;;5113695;28;20059;-75
2023/08/27 03:30:35;;;;;;;14.13;9.95;;;13.60;99.90;;;;;;5111876;28;20503;-69
2023/08/27 03:33:21;;;;;;;13.35;9.10;;;13.60;99.90;;;;;;5112693;28;20108;-72
2023/08/27 03:36:08;;;;;;;12.57;9.50;;;13.60;99.90;;;;;;5111996;28;20487;-69
2023/08/27 03:38:54;;;;;;;13.32;9.88;;;13.60;99.90;;;;;;5112147;28;20119;-74
2023/08/27 03:41:40;;;;;;;13.07;9.68;;;13.60;99.90;;;;;;5113501;28;20051;-68
2023/08/27 03:44:27;;;;;;;15.45;10.25;;;13.60;99.90;;;;;;5111864;28;20054;-69
2023/08/27 03:47:13;;;;;;;13.63;9.20;;;13.60;99.90;;;;;;5112555;28;20118;-69
2023/08/27 03:49:59;;;;;;;14.35;9.93;;;13.60;99.90;;;;;;5112753;28;20487;-70
2023/08/27 03:52:45;;;;;;;14.75;9.93;;;13.60;99.90;;;;;;5112958;28;20090;-69
2023/08/27 03:55:41;;;;;;;12.40;9.30;;;13.60;99.90;;;;;;5110970;28;20090;-71
2023/08/27 03:58:27;;;;;;;13.88;8.90;;;13.60;99.90;;;;;;5111438;28;20055;-69
2023/08/27 04:01:13;;;;;;;14.68;10.50;;;13.60;99.90;;;;;;5112665;28;20566;-70
2023/08/27 04:03:59;;;;;;;13.73;10.32;;;13.70;99.90;;;;;;5112646;28;20499;-68
2023/08/27 04:06:46;;;;;;;15.05;10.45;;;13.70;99.90;;;;;;5111010;28;20086;-68
2023/08/27 04:09:33;;;;;;;11.38;9.20;;;13.70;99.90;;;;;;5111573;28;20124;-68
2023/08/27 04:12:19;;;;;;;14.80;9.98;;;13.70;99.90;;;;;;5110602;28;20051;-73
2023/08/27 04:15:06;;;;;;;14.23;10.27;;;13.80;99.90;;;;;;5097977;28;20064;-69
2023/08/27 04:17:53;;;;;;;14.75;9.98;;;13.80;99.90;;;;;;5112400;28;20047;-69
2023/08/27 04:20:39;;;;;;;11.90;9.50;;;13.80;99.90;;;;;;5112871;28;20513;-68
2023/08/27 04:23:26;;;;;;;13.85;10.18;;;13.80;99.90;;;;;;5111166;28;20058;-68
2023/08/27 04:26:12;;;;;;;14.80;10.15;;;13.80;99.90;;;;;;5081490;28;20055;-69
2023/08/27 04:28:58;;;;;;;16.08;10.70;;;13.90;99.90;;;;;;5111443;28;20578;-68
2023/08/27 04:31:45;;;;;;;15.25;11.38;;;13.90;99.90;;;;;;5111454;28;20201;-70
2023/08/27 04:34:31;;;;;;;11.75;9.40;;;13.90;99.90;;;;;;5110211;28;20056;-69
2023/08/27 04:37:17;;;;;;;15.85;10.00;;;13.90;99.90;;;;;;5112177;28;20139;-69
2023/08/27 04:40:03;;;;;;;13.60;9.52;;;13.90;99.90;;;;;;5111461;28;20112;-71
2023/08/27 04:42:49;;;;;;;13.00;9.30;;;14.00;99.90;;;;;;5112343;28;20091;-69
2023/08/27 04:45:35;;;;;;;14.57;10.73;;;13.90;99.90;;;;;;5110354;28;20144;-69
2023/08/27 04:48:22;;;;;;;17.95;10.60;;;13.90;99.90;;;;;;5110991;28;20047;-68
2023/08/27 04:51:08;;;;;;;14.30;10.38;;;13.90;99.90;;;;;;5111432;27;20059;-69
2023/08/27 04:53:54;;;;;;;14.93;10.65;;;13.90;99.90;;;;;;5111869;28;20040;-68
2023/08/27 04:56:40;;;;;;;17.20;10.75;;;13.90;99.90;;;;;;5095888;28;20055;-69
2023/08/27 04:59:26;;;;;;;19.80;11.02;;;13.90;99.90;;;;;;5112526;28;20066;-71
2023/08/27 05:02:12;;;;;;;15.88;10.50;;;13.90;99.90;;;;;;5113391;28;20051;-74
2023/08/27 05:04:58;;;;;;;12.70;9.10;;;13.90;99.90;;;;;;5110662;28;20051;-78
2023/08/27 05:07:45;;;;;;;16.55;10.90;;;13.90;99.90;;;;;;5110802;28;20047;-79
2023/08/27 05:10:31;;;;;;;12.50;9.73;;;13.90;99.90;;;;;;5111007;28;20059;-78
2023/08/27 05:13:17;;;;;;;15.50;10.75;;;14.00;99.90;;;;;;5111491;28;20143;-79
2023/08/27 05:16:03;;;;;;;14.93;10.95;;;14.00;99.90;;;;;;5110500;28;20524;-80
2023/08/27 05:18:49;;;;;;;12.27;9.57;;;14.00;99.90;;;;;;5109459;28;20515;-79
2023/08/27 05:21:36;;;;;;;12.38;9.68;;;14.00;99.90;;;;;;5110350;28;20053;-79
2023/08/27 05:24:22;;;;;;;15.07;11.15;;;14.10;99.90;;;;;;5111311;28;20673;-71
2023/08/27 05:27:08;;;;;;;15.40;11.60;;;14.10;99.90;;;;;;5110570;28;20461;-76
2023/08/27 05:29:54;;;;;;;14.32;10.45;;;14.20;99.90;;;;;;5110483;28;20117;-74
2023/08/27 05:32:43;;;;;;;13.32;10.75;;;14.20;99.90;;;;;;5110256;28;20059;-78
2023/08/27 05:35:29;;;;;;;12.43;9.63;;;14.30;99.90;;;;;;5111523;28;20093;-77
2023/08/27 05:38:15;;;;;;;12.93;9.82;;;14.40;99.90;;;;;;5111545;28;20126;-69
2023/08/27 05:41:01;;;;;;;15.50;10.45;;;14.40;99.90;;;;;;5111199;28;20047;-72
2023/08/27 05:43:49;;;;;;;12.93;10.35;;;14.50;99.90;;;;;;5111862;27;20509;-74
2023/08/27 05:46:35;;;;;;;14.15;9.77;;;14.60;99.90;;;;;;5109616;28;20530;-73
2023/08/27 05:49:21;;;;;;;11.63;9.05;;;14.60;99.90;;;;;;5111795;28;20059;-72
2023/08/27 05:52:07;;;;;;;13.32;9.60;;;14.70;99.90;;;;;;5108206;28;20139;-70
2023/08/27 05:54:53;;;;;;;14.88;9.52;;;14.70;99.90;;;;;;5110728;28;20060;-71
2023/08/27 05:57:39;;;;;;;12.48;9.55;;;14.70;99.90;;;;;;5109984;28;20063;-70
2023/08/27 06:00:25;;;;;;;15.00;9.68;;;14.70;99.90;;;;;;5111974;28;20059;-75
2023/08/27 06:03:11;;;;;;;14.23;9.48;;;14.70;99.90;;;;;;5111665;28;20134;-72
2023/08/27 06:05:58;;;;;;;11.75;8.63;;;14.70;99.90;;;;;;5111338;28;20039;-71
2023/08/27 06:08:44;;;;;;;12.52;9.68;;;14.70;99.90;;;;;;5110171;28;20499;-70
2023/08/27 06:11:30;;;;;;;13.48;8.95;;;14.70;99.90;;;;;;5109407;28;20052;-70
2023/08/27 06:14:17;;;;;;;12.88;9.05;;;14.80;99.90;;;;;;5109917;28;20048;-75
2023/08/27 06:17:03;;;;;;;13.18;9.38;;;14.80;99.90;;;;;;5110754;28;20043;-70
2023/08/27 06:19:50;;;;;;;14.43;9.82;;;14.80;99.90;;;;;;5110074;28;20066;-78
2023/08/27 06:22:36;;;;;;;15.98;10.02;;;14.80;99.90;;;;;;5109787;28;20093;-76
2023/08/27 06:25:22;;;;;;;12.45;8.95;;;14.90;99.90;;;;;;5109466;28;20134;-77
2023/08/27 06:28:08;;;;;;;14.40;10.02;;;15.00;99.90;;;;;;5109422;28;20499;-73
2023/08/27 06:30:54;;;;;;;11.98;9.30;;;15.00;99.90;;;;;;5109779;28;20503;-71
2023/08/27 06:33:41;;;;;;;17.55;9.60;;;15.00;99.90;;;;;;5109950;28;20383;-71
2023/08/27 06:36:27;;;;;;;13.93;9.63;;;15.10;99.90;;;;;;5108224;28;20118;-71
2023/08/27 06:39:13;;;;;;;14.20;8.60;;;15.20;99.90;;;;;;5110102;28;20055;-70
2023/08/27 06:41:59;;;;;;;14.85;9.00;;;15.20;99.90;;;;;;5109958;28;20040;-79
2023/08/27 06:44:45;;;;;;;13.88;9.13;;;15.20;99.90;;;;;;5108741;28;20043;-74
2023/08/27 06:47:32;;;;;;;15.73;9.73;;;15.30;99.90;;;;;;5108749;28;20054;-76
2023/08/27 06:50:18;;;;;;;11.60;8.50;;;15.30;99.90;;;;;;5108800;28;20054;-70
2023/08/27 06:53:04;;;;;;;11.60;8.60;;;15.40;99.90;;;;;;5108754;28;20043;-73
2023/08/27 06:55:51;;;;;;;13.98;8.32;;;15.40;99.90;;;;;;5110438;28;20044;-71
2023/08/27 06:58:37;;;;;;;14.18;7.68;;;15.40;99.90;;;;;;5107846;28;20514;-74
2023/08/27 07:01:24;;;;;;;16.15;8.43;;;15.40;99.90;;;;;;5110448;28;20380;-70
2023/08/27 07:04:10;;;;;;;11.55;8.55;;;15.50;99.90;;;;;;5108963;28;20085;-74
2023/08/27 07:06:56;;;;;;;14.88;8.73;;;15.60;99.90;;;;;;5109167;28;20109;-71
2023/08/27 07:09:42;;;;;;;12.65;8.32;;;15.50;99.90;;;;;;5113892;28;20044;-80
2023/08/27 07:12:29;;;;;;;11.23;8.18;;;15.60;99.90;;;;;;5114287;28;20499;-77
2023/08/27 07:15:15;;;;;;;14.93;8.85;;;15.70;99.90;;;;;;5113411;28;20055;-78
2023/08/27 07:18:01;;;;;;;14.48;9.05;;;15.70;99.90;;;;;;5113854;28;20074;-70
2023/08/27 07:20:47;;;;;;;17.23;8.93;;;15.80;99.90;;;;;;5114177;28;20039;-71
2023/08/27 07:23:33;;;;;;;12.27;8.02;;;15.80;99.90;;;;;;5098989;28;20060;-75
2023/08/27 07:26:20;;;;;;;11.90;8.15;;;15.90;99.90;;;;;;5096764;28;20406;-69
2023/08/27 07:29:06;;;;;;;14.85;9.25;;;15.90;99.90;;;;;;5097967;28;20051;-71
2023/08/27 07:31:52;;;;;;;14.38;8.85;;;16.00;99.90;;;;;;5112199;28;20063;-71
2023/08/27 07:34:38;;;;;;;14.40;8.50;;;16.10;99.90;;;;;;5113794;28;20079;-71
2023/08/27 07:37:25;;;;;;;14.82;9.48;;;16.20;99.90;;;;;;5113146;28;20044;-70
2023/08/27 07:40:11;;;;;;;13.68;7.93;;;16.10;99.90;;;;;;5111904;28;20047;-70
2023/08/27 07:42:57;;;;;;;12.55;8.07;;;16.20;99.90;;;;;;5113003;28;20055;-77
2023/08/27 07:45:44;;;;;;;13.68;8.55;;;16.20;99.90;;;;;;5112044;28;20047;-71
2023/08/27 07:48:31;;;;;;;16.15;9.07;;;16.40;99.90;;;;;;5111983;28;20050;-78
2023/08/27 07:51:17;;;;;;;12.93;8.60;;;16.30;99.90;;;;;;5112279;28;20049;-70
2023/08/27 07:54:04;;;;;;;12.95;8.85;;;16.40;99.90;;;;;;5111591;28;20055;-71
2023/08/27 07:56:50;;;;;;;12.55;9.13;;;16.40;99.90;;;;;;5112158;28;20398;-73
2023/08/27 07:59:37;;;;;;;17.00;9.40;;;16.50;99.90;;;;;;5112180;28;20451;-72
2023/08/27 08:02:23;;;;;;;11.75;8.73;;;16.70;99.90;;;;;;5111869;28;20066;-70
2023/08/27 08:05:10;;;;;;;11.13;8.48;;;17.00;99.90;;;;;;5111378;28;20048;-70
2023/08/27 08:07:56;;;;;;;13.57;8.38;;;17.40;99.90;;;;;;5112820;28;20051;-71
2023/08/27 08:10:42;;;;;;;11.60;6.63;;;17.70;99.90;;;;;;5113418;28;20052;-71
2023/08/27 08:13:28;;;;;;;10.95;7.03;;;17.90;99.90;;;;;;5111734;28;20406;-71
2023/08/27 08:16:15;;;;;;;11.70;6.95;;;17.90;99.90;;;;;;5110251;28;20059;-71
2023/08/27 08:19:01;;;;;;;10.55;7.35;;;18.00;99.90;;;;;;5111802;28;20131;-72
2023/08/27 08:21:47;;;;;;;13.20;7.65;;;18.20;99.90;;;;;;5112261;28;20475;-69
2023/08/27 08:24:33;;;;;;;12.30;7.03;;;18.30;99.90;;;;;;5110812;28;20051;-74
2023/08/27 08:27:19;;;;;;;9.52;6.50;;;18.20;99.90;;;;;;5110173;28;20055;-69
2023/08/27 08:30:06;;;;;;;9.20;6.70;;;17.90;99.90;;;;;;5111270;28;20418;-76
2023/08/27 08:32:52;;;;;;;13.88;6.05;;;17.70;99.90;;;;;;5113086;27;20048;-69
2023/08/27 08:35:39;;;;;;;8.57;3.50;;;17.80;99.90;;;;;;5109796;28;20063;-71
2023/08/27 08:38:25;;;;;;;6.22;3.15;;;17.90;99.90;;;;;;5110582;28;20043;-72
2023/08/27 08:41:19;;;;;;;8.30;4.05;;;18.20;99.90;;;;;;5113527;28;20100;-74
2023/08/27 08:44:39;;;;;;;6.40;2.97;;;18.20;99.90;;;;;;5114325;28;20113;-72
2023/08/27 08:47:27;;;;;;;5.97;2.17;;;18.50;99.90;;;;;;5113868;28;20047;-71
2023/08/27 08:50:15;;;;;;;6.38;2.58;;;18.60;99.90;;;;;;5112196;28;20059;-75
2023/08/27 08:53:13;;;;;;;4.15;1.63;;;18.80;99.90;;;;;;5111116;28;20060;-70
2023/08/27 08:56:04;;;;;;;5.85;1.65;;;18.90;99.90;;;;;;5111312;28;20602;-70
2023/08/27 08:58:54;;;;;;;2.45;1.00;;;19.10;99.90;;;;;;5111372;28;20491;-73
2023/08/27 09:01:41;;;;;;;2.33;0.80;;;19.30;99.90;;;;;;5110265;28;20058;-71
2023/08/27 09:04:28;;;;;;;1.42;0.60;;;19.40;99.90;;;;;;5109334;28;20056;-72
2023/08/27 09:07:16;;;;;;;2.95;1.08;;;19.60;99.90;;;;;;5109975;28;20048;-74
2023/08/27 09:10:02;;;;;;;2.80;1.10;;;19.90;99.90;;;;;;5110097;28;20087;-71
2023/08/27 09:12:52;;;;;;;2.80;1.10;;;19.70;99.90;;;;;;5111106;28;20070;-76
2023/08/27 09:15:38;;;;;;;3.20;1.45;;;19.70;99.90;;;;;;5110236;28;20130;-70
2023/08/27 09:18:24;;;;;;;3.47;1.40;;;19.90;99.90;;;;;;5110121;28;20095;-72
2023/08/27 09:21:11;;;;;;;3.53;1.55;;;19.90;99.90;;;;;;5111013;28;20549;-71
2023/08/27 09:23:57;;;;;;;5.13;1.77;;;19.70;99.90;;;;;;5109483;28;20112;-70
2023/08/27 09:26:44;;;;;;;3.38;1.40;;;19.60;99.90;;;;;;5111297;28;20043;-71
2023/08/27 09:29:33;;;;;;;3.78;0.90;;;19.90;99.90;;;;;;5110402;28;20062;-74
2023/08/27 09:32:23;;;;;;;3.80;1.00;;;19.80;99.90;;;;;;5109491;28;20120;-71
2023/08/27 09:35:09;;;;;;;2.70;0.80;;;19.80;99.90;;;;;;5110124;28;20040;-72
2023/08/27 09:37:57;;;;;;;1.35;0.50;;;19.40;99.90;;;;;;5111010;28;20116;-74
2023/08/27 09:40:44;;;;;;;1.95;0.60;;;19.30;99.90;;;;;;5110105;28;20058;-80
2023/08/27 09:43:30;;;;;;;1.20;0.40;;;19.10;99.90;;;;;;5109401;28;20138;-75
2023/08/27 09:46:17;;;;;;;0.77;0.25;;;18.80;99.90;;;;;;5108688;28;20483;-74
2023/08/27 09:49:06;;;;;;;0.80;0.40;;;18.80;99.90;;;;;;5110635;28;20392;-74
2023/08/27 09:51:56;;;;;;;2.13;0.47;;;18.90;99.90;;;;;;5111218;28;20483;-74
2023/08/27 09:54:43;;;;;;;1.10;0.47;;;19.10;99.90;;;;;;5110800;28;20499;-70
2023/08/27 09:57:33;;;;;;;1.83;0.40;;;19.50;99.90;;;;;;5109700;28;20144;-72
2023/08/27 10:00:21;;;;;;;1.17;0.45;;;19.70;99.90;;;;;;5109271;28;20063;-78
2023/08/27 10:03:07;;;;;;;2.05;0.82;;;19.70;99.90;;;;;;5110851;28;20044;-74
2023/08/27 10:05:54;;;;;;;2.42;0.90;;;19.60;99.90;;;;;;5110852;28;20056;-73
2023/08/27 10:08:51;;;;;;;1.00;0.47;;;19.50;99.90;;;;;;5110288;28;20048;-73
2023/08/27 10:11:38;;;;;;;1.20;0.43;;;19.40;99.90;;;;;;5110725;28;20048;-70
2023/08/27 10:14:24;;;;;;;2.25;0.52;;;19.20;99.90;;;;;;5110911;28;20054;-76
2023/08/27 10:17:11;;;;;;;1.65;0.60;;;18.90;99.90;;;;;;5109830;28;20051;-72
2023/08/27 10:20:00;;;;;;;1.63;0.70;;;18.80;99.90;;;;;;5110114;28;20055;-72
2023/08/27 10:22:47;;;;;;;0.70;0.35;;;18.90;99.90;;;;;;5111516;28;20059;-74
2023/08/27 10:25:34;;;;;;;3.00;0.80;;;19.00;99.90;;;;;;5113379;28;20407;-76
2023/08/27 10:28:20;;;;;;;2.10;0.85;;;19.60;99.90;;;;;;5111374;28;20054;-75
2023/08/27 10:31:07;;;;;;;1.55;0.70;;;19.70;99.90;;;;;;5110428;28;20384;-79
2023/08/27 10:33:53;;;;;;;3.83;0.63;;;19.60;99.90;;;;;;5109735;28;20058;-83
2023/08/27 10:36:41;;;;;;;1.67;0.63;;;19.60;99.90;;;;;;5110901;28;20051;-75
2023/08/27 10:39:31;;;;;;;2.03;0.70;;;19.70;99.90;;;;;;5110955;28;20058;-79
2023/08/27 10:42:34;;;;;;;3.00;0.70;;;19.70;99.90;;;;;;5095714;28;20406;-80
2023/08/27 10:45:26;;;;;;;2.30;0.85;;;19.40;99.90;;;;;;5114938;28;20078;-79
2023/08/27 10:48:18;;;;;;;1.73;0.65;;;19.10;99.90;;;;;;5114498;28;20108;-73
2023/08/27 10:51:11;;;;;;;5.60;0.80;;;18.80;99.90;;;;;;5116376;28;20132;-73
2023/08/27 10:53:59;;;;;;;3.53;0.80;;;18.60;99.90;;;;;;5116038;28;20471;-71
2023/08/27 10:56:47;;;;;;;4.38;0.98;;;18.50;99.90;;;;;;5115780;28;20071;-74
2023/08/27 10:59:41;;;;;;;3.65;1.08;;;18.20;99.90;;;;;;5116530;28;20108;-79
2023/08/27 11:02:27;;;;;;;5.57;1.20;;;18.00;99.90;;;;;;5115142;28;20555;-80
2023/08/27 11:05:13;;;;;;;2.20;0.77;;;17.80;99.90;;;;;;5114587;28;20426;-83
2023/08/27 11:07:59;;;;;;;5.53;1.00;;;17.60;99.90;;;;;;5114632;28;20087;-81
2023/08/27 11:10:46;;;;;;;3.72;1.08;;;17.50;99.90;;;;;;5114776;28;20056;-75
2023/08/27 11:13:35;;;;;;;4.93;0.93;;;17.40;99.90;;;;;;5099740;28;20209;-72
2023/08/27 11:16:21;;;;;;;3.05;0.77;;;17.30;99.90;;;;;;5115426;28;20403;-72
2023/08/27 11:19:11;;;;;;;3.65;0.82;;;17.20;99.90;;;;;;5116431;28;20047;-82
2023/08/27 11:22:14;;;;;;;2.17;0.73;;;17.10;99.90;;;;;;5112205;28;20108;-72
2023/08/27 11:25:01;;;;;;;1.33;0.60;;;17.20;99.90;;;;;;5113453;28;20135;-74
2023/08/27 11:27:50;;;;;;;3.53;1.10;;;17.20;99.90;;;;;;5112765;28;20051;-73
2023/08/27 11:30:36;;;;;;;2.38;0.50;;;17.20;99.90;;;;;;5112538;28;20083;-76
2023/08/27 11:33:24;;;;;;;2.22;0.60;;;17.20;99.90;;;;;;5112368;28;20209;-77
2023/08/27 11:36:12;;;;;;;1.50;0.57;;;17.20;99.90;;;;;;5110952;28;20131;-74
2023/08/27 11:38:58;;;;;;;1.80;0.50;;;17.20;99.90;;;;;;5113283;28;20129;-74
2023/08/27 11:41:44;;;;;;;1.10;0.43;;;17.10;99.90;;;;;;5113035;28;20147;-73
2023/08/27 11:44:30;;;;;;;2.80;1.20;;;17.00;99.90;;;;;;5113184;28;20055;-73
2023/08/27 11:47:18;;;;;;;1.50;0.50;;;16.70;99.90;;;;;;5113315;28;20139;-71
2023/08/27 11:50:07;;;;;;;2.20;0.70;;;16.60;99.90;;;;;;5111807;28;20039;-75
2023/08/27 11:52:55;;;;;;;2.55;0.70;;;16.40;99.90;;;;;;5112245;28;20503;-70
2023/08/27 11:55:41;;;;;;;4.75;1.00;;;16.20;99.90;;;;;;5112160;28;20411;-73
2023/08/27 11:58:29;;;;;;;3.70;1.10;;;16.00;99.90;;;;;;5114147;28;20445;-74
2023/08/27 12:01:16;;;;;;;3.72;1.17;;;15.80;99.90;;;;;;5113359;28;20841;-75
2023/08/27 12:04:03;;;;;;;4.20;1.83;;;15.60;99.90;;;;;;5110590;28;20052;-70
2023/08/27 12:06:54;;;;;;;3.78;0.70;;;15.60;99.90;;;;;;5110631;28;20051;-71
2023/08/27 12:09:42;;;;;;;3.63;0.75;;;15.60;99.90;;;;;;5112429;28;20108;-73
2023/08/27 12:12:28;;;;;;;4.25;0.77;;;15.60;99.90;;;;;;5097497;28;20054;-69
2023/08/27 12:15:15;;;;;;;1.98;0.40;;;15.60;99.90;;;;;;5111688;28;20042;-70
2023/08/27 12:18:01;;;;;;;3.13;0.40;;;15.60;99.90;;;;;;5111491;28;20055;-72
2023/08/27 12:20:50;;;;;;;1.30;0.40;;;15.70;99.90;;;;;;5111690;28;20048;-76
2023/08/27 12:23:36;;;;;;;2.63;0.50;;;15.80;99.90;;;;;;5111695;28;20093;-70
2023/08/27 12:26:23;;;;;;;1.40;0.40;;;15.80;99.90;;;;;;5109698;28;20504;-76
2023/08/27 12:29:12;;;;;;;3.72;0.80;;;15.90;99.90;;;;;;5111156;28;20048;-73
2023/08/27 12:32:07;;;;;;;1.63;0.40;;;16.10;99.90;;;;;;5110856;28;20487;-72
2023/08/27 12:34:53;;;;;;;3.40;0.50;;;16.20;99.90;;;;;;5112132;28;20138;-76
2023/08/27 12:37:40;;;;;;;4.43;0.82;;;16.90;99.90;;;;;;5112077;28;20051;-72
2023/08/27 12:40:26;;;;;;;1.48;0.40;;;17.90;99.90;;;;;;5110789;28;20047;-81
2023/08/27 12:43:12;;;;;;;1.73;0.47;;;18.80;99.90;;;;;;5112406;28;20051;-83
2023/08/27 12:45:59;;;;;;;5.18;0.50;;;19.70;99.90;;;;;;5111195;28;20055;-83
2023/08/27 12:48:46;;;;;;;1.02;0.30;;;20.30;99.90;;;;;;5110123;28;20047;-79
2023/08/27 12:51:32;;;;;;;3.83;0.57;;;21.00;99.90;;;;;;5113490;28;20048;-78
2023/08/27 12:54:19;;;;;;;2.83;0.47;;;21.60;99.90;;;;;;5110063;28;20052;-82
2023/08/27 12:57:05;;;;;;;3.83;0.57;;;21.90;99.90;;;;;;5111060;28;20043;-76
2023/08/27 12:59:52;;;;;;;1.63;0.47;;;22.40;99.90;;;;;;5110676;28;20811;-71
2023/08/27 13:02:38;;;;;;;4.47;0.52;;;23.00;99.90;;;;;;5110901;28;20097;-76
2023/08/27 13:05:24;;;;;;;1.80;0.47;;;23.00;99.90;;;;;;5110827;28;20074;-74
2023/08/27 13:08:10;;;;;;;1.38;0.40;;;23.70;99.40;;;;;;5110810;28;20048;-82
2023/08/27 13:10:57;;;;;;;2.90;0.50;;;24.40;99.00;;;;;;5112442;28;20047;-72
2023/08/27 13:13:43;;;;;;;3.00;0.52;;;25.50;97.10;;;;;;5112028;28;20112;-74
2023/08/27 13:16:29;;;;;;;3.80;0.70;;;25.50;95.80;;;;;;5112666;28;20070;-82
2023/08/27 13:19:15;;;;;;;3.40;0.60;;;25.60;94.60;;;;;;5082246;28;20503;-80
2023/08/27 13:22:01;;;;;;;1.10;0.40;;;25.80;94.30;;;;;;5110661;28;20403;-80
2023/08/27 13:24:49;;;;;;;3.63;0.50;;;26.30;93.70;;;;;;5110329;28;20050;-83
2023/08/27 13:27:35;;;;;;;3.67;0.55;;;27.00;92.40;;;;;;5109944;28;20498;-81
2023/08/27 13:30:22;;;;;;;3.42;0.63;;;27.30;91.40;;;;;;5110107;28;20103;-71
2023/08/27 13:33:08;;;;;;;5.28;0.80;;;27.40;91.30;;;;;;5111200;28;20521;-73
2023/08/27 13:35:55;;;;;;;1.40;0.20;;;27.70;90.30;;;;;;5110175;28;20608;-74
2023/08/27 13:38:41;;;;;;;4.55;0.60;;;28.20;89.20;;;;;;5108898;28;20036;-79
2023/08/27 13:41:27;;;;;;;3.70;0.63;;;27.90;87.50;;;;;;5110613;28;20047;-72
2023/08/27 13:44:14;;;;;;;2.72;0.80;;;26.70;88.10;;;;;;5109611;28;20138;-71
2023/08/27 13:47:01;;;;;;;1.65;0.43;;;26.10;90.40;;;;;;5109744;28;20051;-74
2023/08/27 13:49:47;;;;;;;5.28;1.15;;;27.30;90.60;;;;;;5110797;28;20101;-71
2023/08/27 13:52:34;;;;;;;3.10;0.52;;;27.70;89.20;;;;;;5111708;28;20093;-83
2023/08/27 13:55:20;;;;;;;2.22;0.50;;;27.70;87.60;;;;;;5110812;28;20039;-74
2023/08/27 13:58:06;;;;;;;2.53;0.50;;;27.50;87.80;;;;;;5110314;28;20197;-72
2023/08/27 14:00:52;;;;;;;4.03;0.65;;;26.40;89.60;;;;;;5112121;28;20757;-76
2023/08/27 14:03:38;;;;;;;2.35;0.70;;;25.60;90.50;;;;;;5110297;28;20051;-73
2023/08/27 14:06:25;;;;;;;5.63;0.55;;;25.90;91.10;;;;;;5110498;28;20051;-80
2023/08/27 14:09:11;;;;;;;4.07;0.60;;;25.00;90.80;;;;;;5112112;28;20104;-70
2023/08/27 14:11:57;;;;;;;3.22;0.60;;;24.40;91.50;;;;;;5112341;28;20055;-78
2023/08/27 14:14:44;;;;;;;1.65;0.70;;;23.80;92.50;;;;;;5111639;28;20100;-83
2023/08/27 14:17:30;;;;;;;4.47;1.10;;;24.10;92.90;;;;;;5112906;28;20570;-71
2023/08/27 14:20:16;;;;;;;1.60;0.60;;;24.10;92.90;;;;;;5116311;27;20048;-75